sensor_id;sensor_type;location;lat;lon;timestamp;temperature;humidity
2757;DHT22;1386;50.862;6.494;2023-11-19T00:01:26;12.10;99.90
2757;DHT22;1386;50.862;6.494;2023-11-19T00:03:55;12.10;99.90
2757;DHT22;1386;50.862;6.494;2023-11-19T00:06:21;12.10;99.90
2757;DHT22;1386;50.862;6.494;2023-11-19T00:08:50;12.10;99.90
2757;DHT22;1386;50.862;6.494;2023-11-19T00:11:17;12.20;99.90
2757;DHT22;1386;50.862;6.494;2023-11-19T00:13:44;12.10;99.90
2757;DHT22;1386;50.862;6.494;2023-11-19T00:16:11;12.10;99.90
2757;DHT22;1386;50.862;6.494;2023-11-19T03:29:35;12.30;99.90
2757;DHT22;1386;50.862;6.494;2023-11-19T03:32:10;12.30;99.90
2757;DHT22;1386;50.862;6.494;2023-11-19T07:25:26;11.70;99.90
2757;DHT22;1386;50.862;6.494;2023-11-19T07:27:52;11.70;99.90
2757;DHT22;1386;50.862;6.494;2023-11-19T07:30:43;11.70;99.90
2757;DHT22;1386;50.862;6.494;2023-11-19T07:33:18;11.70;99.90
2757;DHT22;1386;50.862;6.494;2023-11-19T07:35:45;11.70;99.90
2757;DHT22;1386;50.862;6.494;2023-11-19T07:38:12;11.60;99.90
2757;DHT22;1386;50.862;6.494;2023-11-19T09:04:02;12.50;99.90
2757;DHT22;1386;50.862;6.494;2023-11-19T09:06:30;12.60;99.90
2757;DHT22;1386;50.862;6.494;2023-11-19T09:08:57;12.70;99.90
2757;DHT22;1386;50.862;6.494;2023-11-19T09:11:27;12.90;99.90
2757;DHT22;1386;50.862;6.494;2023-11-19T09:13:54;12.90;99.90
2757;DHT22;1386;50.862;6.494;2023-11-19T09:16:21;12.90;99.90
2757;DHT22;1386;50.862;6.494;2023-11-19T09:18:48;13.00;99.90
2757;DHT22;1386;50.862;6.494;2023-11-19T09:21:28;13.00;99.90
2757;DHT22;1386;50.862;6.494;2023-11-19T09:23:58;13.00;99.90
2757;DHT22;1386;50.862;6.494;2023-11-19T09:26:25;13.00;99.90
2757;DHT22;1386;50.862;6.494;2023-11-19T09:28:59;13.10;99.90
2757;DHT22;1386;50.862;6.494;2023-11-19T09:31:26;13.10;99.90
2757;DHT22;1386;50.862;6.494;2023-11-19T09:34:03;13.20;99.90
2757;DHT22;1386;50.862;6.494;2023-11-19T09:36:35;13.10;99.90
2757;DHT22;1386;50.862;6.494;2023-11-19T09:39:08;13.20;99.90
2757;DHT22;1386;50.862;6.494;2023-11-19T09:41:35;13.30;99.90
2757;DHT22;1386;50.862;6.494;2023-11-19T09:44:02;13.30;99.90
2757;DHT22;1386;50.862;6.494;2023-11-19T09:46:33;13.30;99.90
2757;DHT22;1386;50.862;6.494;2023-11-19T09:49:04;13.40;99.90
2757;DHT22;1386;50.862;6.494;2023-11-19T09:51:34;13.40;99.90
2757;DHT22;1386;50.862;6.494;2023-11-19T09:54:01;13.50;99.90
2757;DHT22;1386;50.862;6.494;2023-11-19T09:56:29;13.50;99.90
2757;DHT22;1386;50.862;6.494;2023-11-19T09:59:00;13.50;99.90
2757;DHT22;1386;50.862;6.494;2023-11-19T10:01:36;13.60;99.90
2757;DHT22;1386;50.862;6.494;2023-11-19T10:04:04;13.60;99.90
2757;DHT22;1386;50.862;6.494;2023-11-19T10:06:34;13.60;99.90
2757;DHT22;1386;50.862;6.494;2023-11-19T10:09:02;13.60;99.90
2757;DHT22;1386;50.862;6.494;2023-11-19T10:11:33;13.70;99.90
2757;DHT22;1386;50.862;6.494;2023-11-19T10:14:04;13.70;99.90
2757;DHT22;1386;50.862;6.494;2023-11-19T10:16:31;13.80;99.90
2757;DHT22;1386;50.862;6.494;2023-11-19T10:19:01;13.70;99.90
2757;DHT22;1386;50.862;6.494;2023-11-19T10:21:29;13.80;99.90
2757;DHT22;1386;50.862;6.494;2023-11-19T10:24:04;13.90;99.90
2757;DHT22;1386;50.862;6.494;2023-11-19T10:26:32;13.80;99.90
2757;DHT22;1386;50.862;6.494;2023-11-19T10:28:59;13.80;99.90
2757;DHT22;1386;50.862;6.494;2023-11-19T10:31:26;13.90;99.90
2757;DHT22;1386;50.862;6.494;2023-11-19T10:33:54;14.00;99.90
2757;DHT22;1386;50.862;6.494;2023-11-19T10:36:22;13.90;99.90
2757;DHT22;1386;50.862;6.494;2023-11-19T10:38:56;13.90;99.90
2757;DHT22;1386;50.862;6.494;2023-11-19T10:41:32;14.10;99.90
2757;DHT22;1386;50.862;6.494;2023-11-19T10:43:59;14.20;99.90
2757;DHT22;1386;50.862;6.494;2023-11-19T10:46:37;14.30;99.90
2757;DHT22;1386;50.862;6.494;2023-11-19T10:49:05;14.20;99.90
2757;DHT22;1386;50.862;6.494;2023-11-19T10:51:32;14.30;99.90
2757;DHT22;1386;50.862;6.494;2023-11-19T10:54:02;14.30;99.90
2757;DHT22;1386;50.862;6.494;2023-11-19T10:56:33;14.30;99.90
2757;DHT22;1386;50.862;6.494;2023-11-19T10:59:00;14.30;99.90
2757;DHT22;1386;50.862;6.494;2023-11-19T11:01:37;14.20;99.90
2757;DHT22;1386;50.862;6.494;2023-11-19T11:04:13;14.20;99.90
2757;DHT22;1386;50.862;6.494;2023-11-19T11:06:40;14.20;99.90
2757;DHT22;1386;50.862;6.494;2023-11-19T11:09:09;14.20;99.90
2757;DHT22;1386;50.862;6.494;2023-11-19T11:11:40;14.10;99.90
2757;DHT22;1386;50.862;6.494;2023-11-19T11:14:09;14.00;99.90
2757;DHT22;1386;50.862;6.494;2023-11-19T11:16:42;14.00;99.90
2757;DHT22;1386;50.862;6.494;2023-11-19T11:19:09;14.00;99.90
2757;DHT22;1386;50.862;6.494;2023-11-19T11:21:38;14.10;99.90
2757;DHT22;1386;50.862;6.494;2023-11-19T11:24:38;14.30;99.90
2757;DHT22;1386;50.862;6.494;2023-11-19T11:27:38;14.30;99.90
2757;DHT22;1386;50.862;6.494;2023-11-19T11:30:15;14.40;99.90
2757;DHT22;1386;50.862;6.494;2023-11-19T11:32:54;14.40;99.90
2757;DHT22;1386;50.862;6.494;2023-11-19T11:35:31;14.30;99.90
2757;DHT22;1386;50.862;6.494;2023-11-19T11:38:06;14.30;99.90
2757;DHT22;1386;50.862;6.494;2023-11-19T11:40:33;14.30;99.90
2757;DHT22;1386;50.862;6.494;2023-11-19T11:43:03;14.30;99.90
2757;DHT22;1386;50.862;6.494;2023-11-19T11:45:38;14.30;99.90
2757;DHT22;1386;50.862;6.494;2023-11-19T11:48:11;14.20;99.90
2757;DHT22;1386;50.862;6.494;2023-11-19T11:50:53;14.20;99.90
2757;DHT22;1386;50.862;6.494;2023-11-19T11:53:24;14.20;99.90
2757;DHT22;1386;50.862;6.494;2023-11-19T11:55:56;14.30;99.90
2757;DHT22;1386;50.862;6.494;2023-11-19T11:58:30;14.30;99.90
2757;DHT22;1386;50.862;6.494;2023-11-19T12:00:58;14.30;99.90
2757;DHT22;1386;50.862;6.494;2023-11-19T12:03:28;14.30;99.90
2757;DHT22;1386;50.862;6.494;2023-11-19T12:05:55;14.30;99.90
2757;DHT22;1386;50.862;6.494;2023-11-19T12:08:28;14.40;99.90
2757;DHT22;1386;50.862;6.494;2023-11-19T12:10:57;14.30;99.90
2757;DHT22;1386;50.862;6.494;2023-11-19T12:13:42;14.40;99.90
2757;DHT22;1386;50.862;6.494;2023-11-19T12:16:13;14.40;99.90
2757;DHT22;1386;50.862;6.494;2023-11-19T12:18:40;14.40;99.90
2757;DHT22;1386;50.862;6.494;2023-11-19T12:21:10;14.30;99.90
2757;DHT22;1386;50.862;6.494;2023-11-19T12:23:47;14.40;99.90
2757;DHT22;1386;50.862;6.494;2023-11-19T12:26:30;14.40;99.90
2757;DHT22;1386;50.862;6.494;2023-11-19T12:29:00;14.40;99.90
2757;DHT22;1386;50.862;6.494;2023-11-19T12:31:29;14.40;99.90
2757;DHT22;1386;50.862;6.494;2023-11-19T12:33:56;14.40;99.90
2757;DHT22;1386;50.862;6.494;2023-11-19T12:36:23;14.40;99.90
2757;DHT22;1386;50.862;6.494;2023-11-19T12:38:50;14.40;99.90
2757;DHT22;1386;50.862;6.494;2023-11-19T12:41:17;14.40;99.90
2757;DHT22;1386;50.862;6.494;2023-11-19T12:43:47;14.40;99.90
2757;DHT22;1386;50.862;6.494;2023-11-19T12:46:19;14.40;99.90
2757;DHT22;1386;50.862;6.494;2023-11-19T12:48:46;14.40;99.90
2757;DHT22;1386;50.862;6.494;2023-11-19T12:51:13;14.30;99.90
2757;DHT22;1386;50.862;6.494;2023-11-19T12:53:51;14.30;99.90
2757;DHT22;1386;50.862;6.494;2023-11-19T12:56:20;14.20;99.90
2757;DHT22;1386;50.862;6.494;2023-11-19T12:58:47;14.20;99.90
2757;DHT22;1386;50.862;6.494;2023-11-19T13:01:17;14.20;99.90
2757;DHT22;1386;50.862;6.494;2023-11-19T13:03:46;14.10;99.90
2757;DHT22;1386;50.862;6.494;2023-11-19T13:06:15;14.20;99.90
2757;DHT22;1386;50.862;6.494;2023-11-19T13:08:44;14.20;99.90
2757;DHT22;1386;50.862;6.494;2023-11-19T13:11:14;14.20;99.90
2757;DHT22;1386;50.862;6.494;2023-11-19T13:13:57;14.30;99.90
2757;DHT22;1386;50.862;6.494;2023-11-19T13:16:25;14.20;99.90
2757;DHT22;1386;50.862;6.494;2023-11-19T13:18:53;14.30;99.90
2757;DHT22;1386;50.862;6.494;2023-11-19T13:21:21;14.30;99.90
2757;DHT22;1386;50.862;6.494;2023-11-19T13:23:48;14.30;99.90
2757;DHT22;1386;50.862;6.494;2023-11-19T13:26:15;14.30;99.90
2757;DHT22;1386;50.862;6.494;2023-11-19T13:28:42;14.20;99.90
2757;DHT22;1386;50.862;6.494;2023-11-19T13:31:10;14.20;99.90
2757;DHT22;1386;50.862;6.494;2023-11-19T13:33:40;14.10;99.90
2757;DHT22;1386;50.862;6.494;2023-11-19T13:36:09;14.10;99.90
2757;DHT22;1386;50.862;6.494;2023-11-19T13:38:36;14.10;99.90
2757;DHT22;1386;50.862;6.494;2023-11-19T13:41:04;14.10;99.90
2757;DHT22;1386;50.862;6.494;2023-11-19T13:43:34;14.10;99.90
2757;DHT22;1386;50.862;6.494;2023-11-19T13:46:01;14.00;99.90
2757;DHT22;1386;50.862;6.494;2023-11-19T13:48:28;14.00;99.90
2757;DHT22;1386;50.862;6.494;2023-11-19T13:50:55;14.00;99.90
2757;DHT22;1386;50.862;6.494;2023-11-19T13:53:24;14.00;99.90
2757;DHT22;1386;50.862;6.494;2023-11-19T13:55:51;14.00;99.90
2757;DHT22;1386;50.862;6.494;2023-11-19T13:58:20;14.10;99.90
2757;DHT22;1386;50.862;6.494;2023-11-19T14:01:06;14.10;99.90
2757;DHT22;1386;50.862;6.494;2023-11-19T14:03:41;14.10;99.90
2757;DHT22;1386;50.862;6.494;2023-11-19T14:06:13;14.00;99.90
2757;DHT22;1386;50.862;6.494;2023-11-19T14:08:42;14.00;99.90
2757;DHT22;1386;50.862;6.494;2023-11-19T14:11:10;13.90;99.90
2757;DHT22;1386;50.862;6.494;2023-11-19T14:13:37;13.90;99.90
2757;DHT22;1386;50.862;6.494;2023-11-19T14:16:08;13.80;99.90
2757;DHT22;1386;50.862;6.494;2023-11-19T14:18:38;13.70;99.90
2757;DHT22;1386;50.862;6.494;2023-11-19T14:21:07;13.70;99.90
2757;DHT22;1386;50.862;6.494;2023-11-19T14:23:34;13.70;99.90
2757;DHT22;1386;50.862;6.494;2023-11-19T14:26:05;13.70;99.90
2757;DHT22;1386;50.862;6.494;2023-11-19T14:28:33;13.60;99.90
2757;DHT22;1386;50.862;6.494;2023-11-19T14:31:01;13.60;99.90
2757;DHT22;1386;50.862;6.494;2023-11-19T14:33:28;13.50;99.90
2757;DHT22;1386;50.862;6.494;2023-11-19T14:36:06;13.50;99.90
2757;DHT22;1386;50.862;6.494;2023-11-19T14:38:33;13.50;99.90
2757;DHT22;1386;50.862;6.494;2023-11-19T14:41:00;13.40;99.90
2757;DHT22;1386;50.862;6.494;2023-11-19T14:43:28;13.30;99.90
2757;DHT22;1386;50.862;6.494;2023-11-19T14:45:55;13.30;99.90
2757;DHT22;1386;50.862;6.494;2023-11-19T14:48:25;13.20;99.90
2757;DHT22;1386;50.862;6.494;2023-11-19T14:50:54;13.10;99.90
2757;DHT22;1386;50.862;6.494;2023-11-19T14:53:24;13.10;99.90
2757;DHT22;1386;50.862;6.494;2023-11-19T14:55:58;13.00;99.90
2757;DHT22;1386;50.862;6.494;2023-11-19T14:58:32;12.90;99.90
2757;DHT22;1386;50.862;6.494;2023-11-19T15:00:59;12.90;99.90
2757;DHT22;1386;50.862;6.494;2023-11-19T15:03:29;12.80;99.90
2757;DHT22;1386;50.862;6.494;2023-11-19T15:05:56;12.80;99.90
2757;DHT22;1386;50.862;6.494;2023-11-19T15:08:23;12.90;99.90
2757;DHT22;1386;50.862;6.494;2023-11-19T15:10:50;12.80;99.90
2757;DHT22;1386;50.862;6.494;2023-11-19T15:13:18;12.80;99.90
2757;DHT22;1386;50.862;6.494;2023-11-19T15:15:46;12.80;99.90
2757;DHT22;1386;50.862;6.494;2023-11-19T15:18:13;12.80;99.90
2757;DHT22;1386;50.862;6.494;2023-11-19T15:20:40;12.70;99.90
2757;DHT22;1386;50.862;6.494;2023-11-19T15:23:07;12.60;99.90
2757;DHT22;1386;50.862;6.494;2023-11-19T15:25:34;12.60;99.90
2757;DHT22;1386;50.862;6.494;2023-11-19T15:28:02;12.60;99.90
2757;DHT22;1386;50.862;6.494;2023-11-19T15:30:29;12.60;99.90
2757;DHT22;1386;50.862;6.494;2023-11-19T15:32:58;12.60;99.90
2757;DHT22;1386;50.862;6.494;2023-11-19T15:35:24;12.60;99.90
2757;DHT22;1386;50.862;6.494;2023-11-19T15:37:51;12.50;99.90
2757;DHT22;1386;50.862;6.494;2023-11-19T15:40:18;12.50;99.90
2757;DHT22;1386;50.862;6.494;2023-11-19T15:42:46;12.40;99.90
2757;DHT22;1386;50.862;6.494;2023-11-19T15:45:13;12.40;99.90
2757;DHT22;1386;50.862;6.494;2023-11-19T15:47:42;12.40;99.90
2757;DHT22;1386;50.862;6.494;2023-11-19T15:50:10;12.30;99.90
2757;DHT22;1386;50.862;6.494;2023-11-19T15:52:37;12.30;99.90
2757;DHT22;1386;50.862;6.494;2023-11-19T15:55:05;12.30;99.90
2757;DHT22;1386;50.862;6.494;2023-11-19T15:57:32;12.30;99.90
2757;DHT22;1386;50.862;6.494;2023-11-19T15:59:59;12.30;99.90
2757;DHT22;1386;50.862;6.494;2023-11-19T16:02:25;12.20;99.90
2757;DHT22;1386;50.862;6.494;2023-11-19T16:04:52;12.30;99.90
2757;DHT22;1386;50.862;6.494;2023-11-19T16:07:20;12.30;99.90
2757;DHT22;1386;50.862;6.494;2023-11-19T16:09:47;12.30;99.90
2757;DHT22;1386;50.862;6.494;2023-11-19T16:12:14;12.30;99.90
2757;DHT22;1386;50.862;6.494;2023-11-19T16:14:41;12.30;99.90
2757;DHT22;1386;50.862;6.494;2023-11-19T16:17:08;12.30;99.90
2757;DHT22;1386;50.862;6.494;2023-11-19T16:19:35;12.30;99.90
2757;DHT22;1386;50.862;6.494;2023-11-19T16:22:02;12.30;99.90
2757;DHT22;1386;50.862;6.494;2023-11-19T16:24:36;12.40;99.90
2757;DHT22;1386;50.862;6.494;2023-11-19T16:27:04;12.40;99.90
2757;DHT22;1386;50.862;6.494;2023-11-19T16:29:31;12.40;99.90
2757;DHT22;1386;50.862;6.494;2023-11-19T16:31:59;12.40;99.90
2757;DHT22;1386;50.862;6.494;2023-11-19T16:34:26;12.40;99.90
2757;DHT22;1386;50.862;6.494;2023-11-19T16:36:53;12.40;99.90
2757;DHT22;1386;50.862;6.494;2023-11-19T16:39:20;12.40;99.90
2757;DHT22;1386;50.862;6.494;2023-11-19T16:41:48;12.50;99.90
2757;DHT22;1386;50.862;6.494;2023-11-19T16:44:15;12.50;99.90
2757;DHT22;1386;50.862;6.494;2023-11-19T16:46:42;12.40;99.90
2757;DHT22;1386;50.862;6.494;2023-11-19T16:49:09;12.40;99.90
2757;DHT22;1386;50.862;6.494;2023-11-19T16:51:36;12.40;99.90
2757;DHT22;1386;50.862;6.494;2023-11-19T16:54:03;12.40;99.90
2757;DHT22;1386;50.862;6.494;2023-11-19T16:56:30;12.30;99.90
2757;DHT22;1386;50.862;6.494;2023-11-19T16:58:59;12.30;99.90
2757;DHT22;1386;50.862;6.494;2023-11-19T17:01:26;12.30;99.90
2757;DHT22;1386;50.862;6.494;2023-11-19T17:03:53;12.30;99.90
2757;DHT22;1386;50.862;6.494;2023-11-19T17:06:20;12.30;99.90
2757;DHT22;1386;50.862;6.494;2023-11-19T17:08:47;12.30;99.90
2757;DHT22;1386;50.862;6.494;2023-11-19T17:11:14;12.20;99.90
2757;DHT22;1386;50.862;6.494;2023-11-19T17:13:41;12.30;99.90
2757;DHT22;1386;50.862;6.494;2023-11-19T17:16:09;12.30;99.90
2757;DHT22;1386;50.862;6.494;2023-11-19T17:18:36;12.40;99.90
2757;DHT22;1386;50.862;6.494;2023-11-19T17:21:05;12.40;99.90
2757;DHT22;1386;50.862;6.494;2023-11-19T17:23:32;12.40;99.90
2757;DHT22;1386;50.862;6.494;2023-11-19T17:25:59;12.40;99.90
2757;DHT22;1386;50.862;6.494;2023-11-19T17:28:26;12.40;99.90
2757;DHT22;1386;50.862;6.494;2023-11-19T17:30:53;12.50;99.90
2757;DHT22;1386;50.862;6.494;2023-11-19T17:33:21;12.50;99.90
2757;DHT22;1386;50.862;6.494;2023-11-19T17:35:48;12.50;99.90
2757;DHT22;1386;50.862;6.494;2023-11-19T17:38:15;12.40;99.90
2757;DHT22;1386;50.862;6.494;2023-11-19T17:40:42;12.40;99.90
2757;DHT22;1386;50.862;6.494;2023-11-19T17:43:09;12.40;99.90
2757;DHT22;1386;50.862;6.494;2023-11-19T17:45:36;12.40;99.90
2757;DHT22;1386;50.862;6.494;2023-11-19T17:48:05;12.40;99.90
2757;DHT22;1386;50.862;6.494;2023-11-19T17:50:34;12.40;99.90
2757;DHT22;1386;50.862;6.494;2023-11-19T17:53:00;12.40;99.90
2757;DHT22;1386;50.862;6.494;2023-11-19T17:55:28;12.40;99.90
2757;DHT22;1386;50.862;6.494;2023-11-19T17:57:58;12.40;99.90
2757;DHT22;1386;50.862;6.494;2023-11-19T18:00:25;12.40;99.90
2757;DHT22;1386;50.862;6.494;2023-11-19T18:02:53;12.40;99.90
2757;DHT22;1386;50.862;6.494;2023-11-19T18:05:20;12.40;99.90
2757;DHT22;1386;50.862;6.494;2023-11-19T18:07:48;12.30;99.90
2757;DHT22;1386;50.862;6.494;2023-11-19T18:10:15;12.30;99.90
2757;DHT22;1386;50.862;6.494;2023-11-19T18:12:43;12.30;99.90
2757;DHT22;1386;50.862;6.494;2023-11-19T18:15:11;12.20;99.90
2757;DHT22;1386;50.862;6.494;2023-11-19T18:17:39;12.20;99.90
2757;DHT22;1386;50.862;6.494;2023-11-19T20:58:13;11.90;99.90
2757;DHT22;1386;50.862;6.494;2023-11-19T21:00:42;11.90;99.90
2757;DHT22;1386;50.862;6.494;2023-11-19T21:03:15;11.90;99.90
2757;DHT22;1386;50.862;6.494;2023-11-19T21:06:19;11.90;99.90
2757;DHT22;1386;50.862;6.494;2023-11-19T21:08:50;11.80;99.90
2757;DHT22;1386;50.862;6.494;2023-11-19T21:11:17;11.80;99.90
2757;DHT22;1386;50.862;6.494;2023-11-19T21:13:48;11.90;99.90
2757;DHT22;1386;50.862;6.494;2023-11-19T21:16:19;11.80;99.90
2757;DHT22;1386;50.862;6.494;2023-11-19T21:18:48;11.80;99.90
2757;DHT22;1386;50.862;6.494;2023-11-19T21:21:17;11.80;99.90
2757;DHT22;1386;50.862;6.494;2023-11-19T21:23:46;11.80;99.90
2757;DHT22;1386;50.862;6.494;2023-11-19T21:26:19;11.80;99.90
2757;DHT22;1386;50.862;6.494;2023-11-19T21:28:50;11.80;99.90
2757;DHT22;1386;50.862;6.494;2023-11-19T21:31:17;11.80;99.90
2757;DHT22;1386;50.862;6.494;2023-11-19T21:33:46;11.70;99.90
2757;DHT22;1386;50.862;6.494;2023-11-19T21:36:13;11.70;99.90
2757;DHT22;1386;50.862;6.494;2023-11-19T21:38:45;11.60;99.90
2757;DHT22;1386;50.862;6.494;2023-11-19T21:41:22;11.60;99.90
2757;DHT22;1386;50.862;6.494;2023-11-19T21:44:10;11.60;99.90
2757;DHT22;1386;50.862;6.494;2023-11-19T21:46:45;11.60;99.90
2757;DHT22;1386;50.862;6.494;2023-11-19T21:49:19;11.60;99.90
2757;DHT22;1386;50.862;6.494;2023-11-19T21:51:48;11.60;99.90
2757;DHT22;1386;50.862;6.494;2023-11-19T21:54:15;11.50;99.90
2757;DHT22;1386;50.862;6.494;2023-11-19T21:56:54;11.50;99.90
2757;DHT22;1386;50.862;6.494;2023-11-19T21:59:40;11.40;99.90
2757;DHT22;1386;50.862;6.494;2023-11-19T22:02:09;11.40;99.90
2757;DHT22;1386;50.862;6.494;2023-11-19T22:04:37;11.40;99.90
2757;DHT22;1386;50.862;6.494;2023-11-19T22:07:04;11.40;99.90
2757;DHT22;1386;50.862;6.494;2023-11-19T22:09:34;11.30;99.90
2757;DHT22;1386;50.862;6.494;2023-11-19T22:12:03;11.30;99.90
2757;DHT22;1386;50.862;6.494;2023-11-19T22:14:31;11.30;99.90
2757;DHT22;1386;50.862;6.494;2023-11-19T22:17:09;11.30;99.90
2757;DHT22;1386;50.862;6.494;2023-11-19T22:19:38;11.30;99.90
2757;DHT22;1386;50.862;6.494;2023-11-19T22:22:07;11.30;99.90
2757;DHT22;1386;50.862;6.494;2023-11-19T22:24:35;11.30;99.90
2757;DHT22;1386;50.862;6.494;2023-11-19T22:27:03;11.30;99.90
2757;DHT22;1386;50.862;6.494;2023-11-19T22:29:31;11.30;99.90
2757;DHT22;1386;50.862;6.494;2023-11-19T22:31:58;11.30;99.90
2757;DHT22;1386;50.862;6.494;2023-11-19T22:34:27;11.30;99.90
2757;DHT22;1386;50.862;6.494;2023-11-19T22:36:55;11.30;99.90
2757;DHT22;1386;50.862;6.494;2023-11-19T22:39:24;11.20;99.90
2757;DHT22;1386;50.862;6.494;2023-11-19T22:41:58;11.20;99.90
2757;DHT22;1386;50.862;6.494;2023-11-19T22:44:28;11.20;99.90
2757;DHT22;1386;50.862;6.494;2023-11-19T22:46:57;11.20;99.90
2757;DHT22;1386;50.862;6.494;2023-11-19T22:49:31;11.10;99.90
2757;DHT22;1386;50.862;6.494;2023-11-19T22:51:58;11.10;99.90
2757;DHT22;1386;50.862;6.494;2023-11-19T22:54:28;11.10;99.90
2757;DHT22;1386;50.862;6.494;2023-11-19T22:56:57;11.10;99.90
2757;DHT22;1386;50.862;6.494;2023-11-19T22:59:24;11.10;99.90
2757;DHT22;1386;50.862;6.494;2023-11-19T23:01:55;11.10;99.90
2757;DHT22;1386;50.862;6.494;2023-11-19T23:04:22;11.20;99.90
2757;DHT22;1386;50.862;6.494;2023-11-19T23:06:55;11.20;99.90
2757;DHT22;1386;50.862;6.494;2023-11-19T23:09:22;11.30;99.90
